createdAt,value
2022-10-19T00:01:08.599Z,8.07
2022-10-19T00:03:36.390Z,9.20
2022-10-19T00:06:17.009Z,8.63
2022-10-19T00:08:44.825Z,8.32
2022-10-19T00:11:12.898Z,8.40
2022-10-19T00:13:40.217Z,8.38
2022-10-19T00:16:12.926Z,10.38
2022-10-19T00:18:40.773Z,9.63
2022-10-19T00:21:08.587Z,9.63
2022-10-19T00:23:36.778Z,10.18
2022-10-19T00:26:03.992Z,9.90
2022-10-19T00:28:31.635Z,9.75
2022-10-19T00:31:03.812Z,10.48
2022-10-19T00:33:30.847Z,11.32
2022-10-19T00:35:58.084Z,11.35
2022-10-19T00:38:25.183Z,11.35
2022-10-19T00:40:51.955Z,11.10
2022-10-19T00:43:24.640Z,11.30
2022-10-19T00:45:52.504Z,12.10
2022-10-19T00:48:26.653Z,13.40
2022-10-19T00:50:54.700Z,13.75
2022-10-19T00:53:22.096Z,16.20
2022-10-19T00:55:48.932Z,16.02
2022-10-19T00:58:15.965Z,15.48
2022-10-19T01:00:42.893Z,15.25
2022-10-19T01:03:11.360Z,14.23
2022-10-19T01:05:38.471Z,14.68
2022-10-19T01:08:06.627Z,16.13
2022-10-19T01:11:04.786Z,16.45
2022-10-19T01:13:40.867Z,15.93
2022-10-19T01:16:34.002Z,17.30
2022-10-19T01:19:26.069Z,16.48
2022-10-19T01:22:15.678Z,17.20
2022-10-19T01:25:21.514Z,16.50
2022-10-19T01:27:57.698Z,16.70
2022-10-19T01:30:36.937Z,17.23
2022-10-19T01:33:06.372Z,18.15
2022-10-19T01:35:56.601Z,17.80
2022-10-19T01:38:44.396Z,16.95
2022-10-19T01:41:17.988Z,17.55
2022-10-19T01:43:58.710Z,18.52
2022-10-19T01:46:38.840Z,19.42
2022-10-19T01:49:17.022Z,20.23
2022-10-19T01:51:48.212Z,19.40
2022-10-19T01:54:17.044Z,21.55
2022-10-19T01:56:46.042Z,20.20
2022-10-19T01:59:13.124Z,19.88
2022-10-19T02:01:42.574Z,19.77
2022-10-19T02:04:11.382Z,20.23
2022-10-19T02:06:39.337Z,20.90
2022-10-19T02:09:06.160Z,21.83
2022-10-19T02:11:35.935Z,23.73
2022-10-19T02:14:10.123Z,22.30
2022-10-19T02:16:41.400Z,22.85
2022-10-19T02:19:08.956Z,21.55
2022-10-19T02:21:36.057Z,20.45
2022-10-19T02:24:02.974Z,20.92
2022-10-19T02:26:30.240Z,20.63
2022-10-19T02:28:57.270Z,20.30
2022-10-19T02:31:24.631Z,18.50
2022-10-19T02:33:51.696Z,19.40
2022-10-19T02:36:18.923Z,18.15
2022-10-19T02:38:45.699Z,18.48
2022-10-19T02:41:18.634Z,19.17
2022-10-19T02:43:49.032Z,20.48
2022-10-19T02:46:22.314Z,21.63
2022-10-19T02:48:51.030Z,20.38
2022-10-19T02:51:33.939Z,21.13
2022-10-19T02:54:04.223Z,20.08
2022-10-19T02:56:33.407Z,21.35
2022-10-19T02:59:00.367Z,21.08
2022-10-19T03:01:27.398Z,22.13
2022-10-19T03:03:54.170Z,21.10
2022-10-19T03:06:21.169Z,22.45
2022-10-19T03:08:47.942Z,21.58
2022-10-19T03:11:15.021Z,22.08
2022-10-19T03:13:42.996Z,18.13
2022-10-19T03:16:11.872Z,16.80
2022-10-19T03:18:39.330Z,13.82
2022-10-19T03:21:09.248Z,15.57
2022-10-19T03:23:36.489Z,15.38
2022-10-19T03:26:05.661Z,16.38
2022-10-19T03:28:34.571Z,16.55
2022-10-19T03:31:01.631Z,16.63
2022-10-19T03:33:28.473Z,18.20
2022-10-19T03:36:24.216Z,17.65
2022-10-19T03:39:01.429Z,18.33
2022-10-19T03:41:30.896Z,17.95
2022-10-19T03:43:58.177Z,17.38
2022-10-19T03:46:25.911Z,18.05
2022-10-19T03:48:53.350Z,18.05
2022-10-19T03:51:22.620Z,19.52
2022-10-19T03:53:52.955Z,20.17
2022-10-19T03:56:22.724Z,20.02
2022-10-19T03:58:50.534Z,19.05
2022-10-19T04:01:45.066Z,20.00
2022-10-19T04:04:14.743Z,17.30
2022-10-19T04:06:45.117Z,17.00
2022-10-19T04:09:14.239Z,15.73
2022-10-19T04:11:41.661Z,16.15
2022-10-19T04:16:36.612Z,13.80
2022-10-19T04:19:03.557Z,12.98
2022-10-19T04:21:36.345Z,11.90
2022-10-19T04:24:05.644Z,12.88
2022-10-19T04:26:34.002Z,12.10
2022-10-19T04:29:01.673Z,12.90
2022-10-19T04:31:29.142Z,13.35
2022-10-19T04:33:56.502Z,13.25
2022-10-19T04:36:24.010Z,13.85
2022-10-19T04:38:50.860Z,13.23
2022-10-19T04:41:20.035Z,14.38
2022-10-19T04:43:47.696Z,14.43
2022-10-19T04:46:17.011Z,14.07
2022-10-19T04:48:44.781Z,15.93
2022-10-19T04:51:12.333Z,14.27
2022-10-19T04:53:40.576Z,14.50
2022-10-19T04:56:09.888Z,14.40
2022-10-19T04:58:36.721Z,13.30
2022-10-19T05:01:12.137Z,13.25
2022-10-19T05:03:39.483Z,13.85
2022-10-19T05:06:07.556Z,13.50
2022-10-19T05:08:34.887Z,14.80
2022-10-19T05:11:07.417Z,14.05
2022-10-19T05:13:34.666Z,14.32
2022-10-19T05:16:04.554Z,14.35
2022-10-19T05:18:31.536Z,15.23
2022-10-19T05:21:10.140Z,15.60
2022-10-19T05:23:37.474Z,15.10
2022-10-19T05:26:17.335Z,13.68
2022-10-19T05:28:48.130Z,14.48
2022-10-19T05:31:19.940Z,13.65
2022-10-19T05:33:47.321Z,15.30
2022-10-19T05:36:26.301Z,13.23
2022-10-19T05:38:54.879Z,13.77
2022-10-19T05:41:23.078Z,14.27
2022-10-19T05:43:58.317Z,13.13
2022-10-19T05:46:26.334Z,13.85
2022-10-19T05:48:53.202Z,13.60
2022-10-19T05:51:21.165Z,13.85
2022-10-19T05:53:47.988Z,13.48
2022-10-19T05:56:18.559Z,13.80
2022-10-19T05:58:45.845Z,13.18
2022-10-19T06:01:12.990Z,12.98
2022-10-19T06:03:40.223Z,12.52
2022-10-19T06:06:08.164Z,13.43
2022-10-19T06:08:35.646Z,12.13
2022-10-19T06:11:14.387Z,11.10
2022-10-19T06:13:42.755Z,10.98
2022-10-19T06:16:11.434Z,10.63
2022-10-19T06:18:38.813Z,11.80
2022-10-19T06:21:08.466Z,11.23
2022-10-19T06:23:35.585Z,10.90
2022-10-19T06:26:07.231Z,11.05
2022-10-19T06:28:34.730Z,11.60
2022-10-19T06:31:02.401Z,10.88
2022-10-19T06:33:31.594Z,10.55
2022-10-19T06:36:07.950Z,10.82
2022-10-19T06:38:34.944Z,10.65
2022-10-19T06:41:02.289Z,10.27
2022-10-19T06:43:29.162Z,10.20
2022-10-19T06:45:56.463Z,10.30
2022-10-19T06:48:23.430Z,10.75
2022-10-19T06:50:57.996Z,10.57
2022-10-19T06:53:25.366Z,10.60
2022-10-19T06:55:52.915Z,11.27
2022-10-19T06:58:19.738Z,10.95
2022-10-19T07:00:55.081Z,10.20
2022-10-19T07:03:21.891Z,10.35
2022-10-19T07:05:56.640Z,9.98
2022-10-19T07:08:24.410Z,10.30
2022-10-19T07:10:56.265Z,9.82
2022-10-19T07:13:23.767Z,10.80
2022-10-19T07:15:59.870Z,10.05
2022-10-19T07:18:27.504Z,10.82
2022-10-19T07:20:56.462Z,10.23
2022-10-19T07:23:23.980Z,10.85
2022-10-19T07:25:52.797Z,10.63
2022-10-19T07:28:21.086Z,10.70
2022-10-19T07:30:48.250Z,10.55
2022-10-19T07:33:15.102Z,11.20
2022-10-19T07:35:42.442Z,11.20
2022-10-19T07:38:09.279Z,10.65
2022-10-19T07:40:36.739Z,10.70
2022-10-19T07:43:03.893Z,11.13
2022-10-19T07:45:32.439Z,11.82
2022-10-19T07:47:59.865Z,11.05
2022-10-19T07:50:27.785Z,11.43
2022-10-19T07:52:54.963Z,12.23
2022-10-19T07:55:22.106Z,10.70
2022-10-19T07:57:50.023Z,11.10
2022-10-19T08:00:17.349Z,11.32
2022-10-19T08:02:54.889Z,11.88
2022-10-19T08:05:27.072Z,11.60
2022-10-19T08:07:54.091Z,10.95
2022-10-19T08:10:21.169Z,11.77
2022-10-19T08:12:47.970Z,10.95
2022-10-19T08:15:15.200Z,10.35
2022-10-19T08:17:42.012Z,11.95
2022-10-19T08:20:09.503Z,10.68
2022-10-19T08:22:36.863Z,11.27
2022-10-19T08:25:04.317Z,11.88
2022-10-19T08:27:31.168Z,11.70
2022-10-19T08:29:59.003Z,11.68
2022-10-19T08:32:25.881Z,11.73
2022-10-19T08:34:52.922Z,10.90
2022-10-19T08:37:26.250Z,11.40
2022-10-19T08:40:10.940Z,10.77
2022-10-19T08:42:43.781Z,8.02
2022-10-19T08:45:30.076Z,8.45
2022-10-19T08:48:15.257Z,7.28
2022-10-19T08:50:44.773Z,6.22
2022-10-19T08:53:17.085Z,6.03
2022-10-19T08:55:58.661Z,7.00
2022-10-19T08:59:04.780Z,6.32
2022-10-19T09:02:15.946Z,6.80
2022-10-19T09:04:47.951Z,6.40
2022-10-19T09:07:26.103Z,6.60
2022-10-19T09:10:05.489Z,6.07
2022-10-19T09:12:44.782Z,6.05
2022-10-19T09:15:25.090Z,6.53
2022-10-19T09:17:52.171Z,6.78
2022-10-19T09:20:25.514Z,6.35
2022-10-19T09:23:36.966Z,4.85
2022-10-19T09:26:08.213Z,3.95
2022-10-19T09:29:14.297Z,4.82
2022-10-19T09:31:44.491Z,5.22
2022-10-19T09:34:16.716Z,4.90
2022-10-19T09:36:58.783Z,4.78
2022-10-19T09:39:29.494Z,4.93
2022-10-19T09:41:59.080Z,5.72
2022-10-19T09:44:27.316Z,5.32
2022-10-19T09:47:26.193Z,4.68
2022-10-19T09:50:25.473Z,4.85
2022-10-19T09:52:59.549Z,4.50
2022-10-19T09:55:37.356Z,4.68
2022-10-19T09:58:17.558Z,4.45
2022-10-19T10:00:47.122Z,4.05
2022-10-19T10:03:53.735Z,3.70
2022-10-19T10:06:23.119Z,3.70
2022-10-19T10:08:58.035Z,4.28
2022-10-19T10:11:29.225Z,3.10
2022-10-19T10:13:57.914Z,3.55
2022-10-19T10:16:33.768Z,3.47
2022-10-19T10:19:04.383Z,3.00
2022-10-19T10:21:45.241Z,3.08
2022-10-19T10:24:12.010Z,3.47
2022-10-19T10:26:44.586Z,3.10
2022-10-19T10:29:21.424Z,3.42
2022-10-19T10:32:07.877Z,3.30
2022-10-19T10:34:46.027Z,3.33
2022-10-19T10:37:40.729Z,2.90
2022-10-19T10:40:23.333Z,3.40
2022-10-19T10:42:52.036Z,4.10
2022-10-19T10:45:23.409Z,3.75
2022-10-19T10:47:51.397Z,3.78
2022-10-19T10:50:22.652Z,3.67
2022-10-19T10:53:31.498Z,3.55
2022-10-19T10:55:58.617Z,4.15
2022-10-19T10:58:39.073Z,4.20
2022-10-19T11:01:08.098Z,4.07
2022-10-19T11:03:36.141Z,5.28
2022-10-19T11:06:03.080Z,5.65
2022-10-19T11:08:58.160Z,4.60
2022-10-19T11:11:34.490Z,6.32
2022-10-19T11:14:29.331Z,1.20
2022-10-19T11:16:59.193Z,0.65
2022-10-19T11:19:31.647Z,0.63
2022-10-19T11:22:35.698Z,1.00
2022-10-19T11:25:40.751Z,1.00
2022-10-19T11:28:16.501Z,0.90
2022-10-19T11:31:09.879Z,0.60
2022-10-19T11:34:00.377Z,0.93
2022-10-19T11:36:47.136Z,1.20
2022-10-19T11:39:29.252Z,1.10
2022-10-19T11:42:01.380Z,1.17
2022-10-19T11:44:46.993Z,1.00
2022-10-19T11:47:33.480Z,0.90
2022-10-19T11:50:12.337Z,1.52
2022-10-19T11:52:51.977Z,1.35
2022-10-19T11:55:32.749Z,0.93
2022-10-19T11:58:06.551Z,1.40
2022-10-19T12:00:44.378Z,1.17
2022-10-19T12:03:33.623Z,1.35
2022-10-19T12:06:40.491Z,1.02
2022-10-19T12:09:44.420Z,1.38
2022-10-19T12:12:42.933Z,1.30
2022-10-19T12:15:28.270Z,1.13
2022-10-19T12:17:58.677Z,1.05
2022-10-19T12:20:28.501Z,1.23
2022-10-19T12:22:57.711Z,0.93
2022-10-19T12:25:25.025Z,1.23
2022-10-19T12:27:52.243Z,1.20
2022-10-19T12:30:23.190Z,1.33
2022-10-19T12:32:58.455Z,1.10
2022-10-19T12:35:25.836Z,1.00
2022-10-19T12:38:15.053Z,1.17
2022-10-19T12:40:52.482Z,0.95
2022-10-19T12:43:24.355Z,1.10
2022-10-19T12:46:12.300Z,1.08
2022-10-19T12:48:39.408Z,0.90
2022-10-19T12:51:12.354Z,1.30
2022-10-19T12:53:40.803Z,1.00
2022-10-19T12:56:23.809Z,1.23
2022-10-19T12:58:59.864Z,1.50
2022-10-19T13:01:44.019Z,1.85
2022-10-19T13:04:13.769Z,1.33
2022-10-19T13:06:50.144Z,1.58
2022-10-19T13:09:37.567Z,1.58
2022-10-19T13:12:17.496Z,1.38
2022-10-19T13:14:55.606Z,1.65
2022-10-19T13:17:36.565Z,1.83
2022-10-19T13:20:15.604Z,1.42
2022-10-19T13:22:50.357Z,1.77
2022-10-19T13:25:17.294Z,1.80
2022-10-19T13:27:45.802Z,1.17
2022-10-19T13:30:34.455Z,1.00
2022-10-19T13:33:28.615Z,0.88
2022-10-19T13:36:04.453Z,0.70
2022-10-19T13:41:15.279Z,0.82
2022-10-19T13:43:54.578Z,0.80
2022-10-19T13:46:30.371Z,0.70
2022-10-19T13:49:31.770Z,0.68
2022-10-19T13:52:05.766Z,0.85
2022-10-19T13:54:32.831Z,0.80
2022-10-19T13:57:05.540Z,0.90
2022-10-19T13:59:39.659Z,0.80
2022-10-19T14:02:32.690Z,1.00
2022-10-19T14:05:05.957Z,0.80
2022-10-19T14:07:39.354Z,0.98
2022-10-19T14:10:17.014Z,0.70
2022-10-19T14:12:45.218Z,0.63
2022-10-19T14:15:18.349Z,0.80
2022-10-19T14:17:45.234Z,0.85
2022-10-19T14:20:32.918Z,0.65
2022-10-19T14:23:34.259Z,0.40
2022-10-19T14:26:03.923Z,0.50
2022-10-19T14:28:32.090Z,0.73
2022-10-19T14:31:07.612Z,0.70
2022-10-19T14:33:37.981Z,1.10
2022-10-19T14:36:06.734Z,0.80
2022-10-19T14:38:36.264Z,0.82
2022-10-19T14:41:19.070Z,0.85
2022-10-19T14:43:45.921Z,1.30
2022-10-19T14:46:16.312Z,1.30
2022-10-19T14:48:45.632Z,1.20
2022-10-19T14:51:34.531Z,1.25
2022-10-19T14:54:36.845Z,1.10
2022-10-19T14:57:19.647Z,1.55
2022-10-19T14:59:50.175Z,1.10
2022-10-19T15:02:24.676Z,1.38
2022-10-19T15:04:53.057Z,1.20
2022-10-19T15:07:25.971Z,0.93
2022-10-19T15:09:58.605Z,0.90
2022-10-19T15:12:29.251Z,1.10
2022-10-19T15:14:57.270Z,0.60
2022-10-19T15:17:30.460Z,0.60
2022-10-19T15:20:01.238Z,0.63
2022-10-19T15:22:31.993Z,0.60
2022-10-19T15:25:00.537Z,1.10
2022-10-19T15:27:37.894Z,1.10
2022-10-19T15:30:27.170Z,0.50
2022-10-19T15:33:00.646Z,0.50
2022-10-19T15:35:30.752Z,0.68
2022-10-19T15:38:23.132Z,1.30
2022-10-19T15:40:56.814Z,0.88
2022-10-19T15:43:30.910Z,0.93
2022-10-19T15:46:07.080Z,0.70
2022-10-19T15:48:50.113Z,0.90
2022-10-19T15:51:25.708Z,1.10
2022-10-19T15:54:00.707Z,0.88
2022-10-19T15:56:29.351Z,1.30
2022-10-19T15:58:58.966Z,1.33
2022-10-19T16:01:31.133Z,1.65
2022-10-19T16:03:58.536Z,1.90
2022-10-19T16:06:30.289Z,2.05
2022-10-19T16:08:58.741Z,2.10
2022-10-19T16:11:26.353Z,1.80
2022-10-19T16:13:53.501Z,1.83
2022-10-19T16:16:23.532Z,1.88
2022-10-19T16:18:50.685Z,1.58
2022-10-19T16:21:19.118Z,1.60
2022-10-19T16:23:46.229Z,1.30
2022-10-19T16:26:16.780Z,1.40
2022-10-19T16:28:44.208Z,1.20
2022-10-19T16:31:11.084Z,1.40
2022-10-19T16:33:38.426Z,1.42
2022-10-19T16:36:07.048Z,1.70
2022-10-19T16:38:34.716Z,1.70
2022-10-19T16:41:02.915Z,1.65
2022-10-19T16:43:30.477Z,1.13
2022-10-19T16:45:57.599Z,1.30
2022-10-19T16:48:25.351Z,1.20
2022-10-19T16:51:07.481Z,1.20
2022-10-19T16:53:35.589Z,1.65
2022-10-19T16:56:07.943Z,1.55
2022-10-19T16:58:37.160Z,3.58
2022-10-19T17:01:11.229Z,3.20
2022-10-19T17:03:38.405Z,1.90
2022-10-19T17:06:06.572Z,1.98
2022-10-19T17:09:02.337Z,1.77
2022-10-19T17:11:26.370Z,1.80
2022-10-19T17:13:55.527Z,1.73
2022-10-19T17:16:23.561Z,1.60
2022-10-19T17:18:53.446Z,1.80
2022-10-19T17:21:22.718Z,1.48
2022-10-19T17:23:54.645Z,1.80
2022-10-19T17:26:26.819Z,1.30
2022-10-19T17:28:55.008Z,1.70
2022-10-19T17:31:21.877Z,1.98
2022-10-19T17:33:51.727Z,1.63
2022-10-19T17:36:27.591Z,2.20
2022-10-19T17:38:56.463Z,1.83
2022-10-19T17:41:23.697Z,1.60
2022-10-19T17:43:54.504Z,1.83
2022-10-19T17:46:26.906Z,1.83
2022-10-19T17:48:54.014Z,1.85
2022-10-19T17:51:29.335Z,1.90
2022-10-19T17:54:01.795Z,1.92
2022-10-19T17:56:29.590Z,1.95
2022-10-19T17:58:57.675Z,2.17
2022-10-19T18:01:25.180Z,2.67
2022-10-19T18:03:52.678Z,2.60
2022-10-19T18:06:20.526Z,2.67
2022-10-19T18:08:49.963Z,3.10
2022-10-19T18:11:29.005Z,2.80
2022-10-19T18:13:58.710Z,2.17
2022-10-19T18:16:38.166Z,2.20
2022-10-19T18:19:06.728Z,2.30
2022-10-19T18:21:39.541Z,2.22
2022-10-19T18:24:10.123Z,2.22
2022-10-19T18:26:40.022Z,2.20
2022-10-19T18:29:12.960Z,2.70
2022-10-19T18:31:40.421Z,2.30
2022-10-19T18:34:10.984Z,2.13
2022-10-19T18:36:38.011Z,2.50
2022-10-19T18:39:06.153Z,2.80
2022-10-19T18:41:33.672Z,2.55
2022-10-19T18:44:04.433Z,2.53
2022-10-19T18:46:35.191Z,2.10
2022-10-19T18:49:03.942Z,2.30
2022-10-19T18:51:32.050Z,2.50
2022-10-19T18:53:59.533Z,2.03
2022-10-19T18:56:29.386Z,2.47
2022-10-19T18:58:56.902Z,3.08
2022-10-19T19:01:26.834Z,3.23
2022-10-19T19:03:56.330Z,2.90
2022-10-19T19:06:30.060Z,3.20
2022-10-19T19:08:58.296Z,3.00
2022-10-19T19:11:27.673Z,2.92
2022-10-19T19:13:58.484Z,2.60
2022-10-19T19:16:26.225Z,2.80
2022-10-19T19:18:54.547Z,2.47
2022-10-19T19:21:24.171Z,2.67
2022-10-19T19:23:52.793Z,2.60
2022-10-19T19:26:20.592Z,2.55
2022-10-19T19:28:49.220Z,2.80
2022-10-19T19:31:19.227Z,3.63
2022-10-19T19:33:47.048Z,3.35
2022-10-19T19:36:15.857Z,2.93
2022-10-19T19:38:43.311Z,3.13
2022-10-19T19:41:12.659Z,2.90
2022-10-19T19:43:40.071Z,2.90
2022-10-19T19:46:11.082Z,2.67
2022-10-19T19:48:39.001Z,2.80
2022-10-19T19:51:09.113Z,2.80
2022-10-19T19:53:37.611Z,2.57
2022-10-19T19:56:06.806Z,2.40
2022-10-19T19:58:34.020Z,2.50
2022-10-19T20:01:00.971Z,2.53
2022-10-19T20:03:28.316Z,2.97
2022-10-19T20:05:55.261Z,2.80
2022-10-19T20:08:22.368Z,3.20
2022-10-19T20:10:49.153Z,3.40
2022-10-19T20:13:16.151Z,3.30
2022-10-19T20:15:42.972Z,3.10
2022-10-19T20:18:10.100Z,3.30
2022-10-19T20:20:37.022Z,3.07
2022-10-19T20:23:04.012Z,3.27
2022-10-19T20:25:30.886Z,2.93
2022-10-19T20:27:57.877Z,3.58
2022-10-19T20:30:24.669Z,3.27
2022-10-19T20:32:53.889Z,3.43
2022-10-19T20:35:20.735Z,3.60
2022-10-19T20:37:49.760Z,3.30
2022-10-19T20:40:17.578Z,3.63
2022-10-19T20:42:44.934Z,3.83
2022-10-19T20:45:15.134Z,3.60
2022-10-19T20:47:42.239Z,3.83
2022-10-19T20:50:09.394Z,3.90
2022-10-19T20:52:36.936Z,4.27
2022-10-19T20:55:04.756Z,4.00
2022-10-19T20:57:31.795Z,4.70
2022-10-19T20:59:58.631Z,4.30
2022-10-19T21:02:25.722Z,4.13
2022-10-19T21:04:52.490Z,3.73
2022-10-19T21:07:19.492Z,3.47
2022-10-19T21:09:46.266Z,4.27
2022-10-19T21:12:13.359Z,3.87
2022-10-19T21:14:40.162Z,3.47
2022-10-19T21:17:07.159Z,3.60
2022-10-19T21:19:34.372Z,3.67
2022-10-19T21:22:02.393Z,3.80
2022-10-19T21:24:34.905Z,3.27
2022-10-19T21:27:04.875Z,3.43
2022-10-19T21:29:31.770Z,4.07
2022-10-19T21:31:59.062Z,4.10
2022-10-19T21:34:27.730Z,4.13
2022-10-19T21:36:55.155Z,3.60
2022-10-19T21:39:22.388Z,3.77
2022-10-19T21:41:49.490Z,4.00
2022-10-19T21:44:17.779Z,3.70
2022-10-19T21:46:47.415Z,4.07
2022-10-19T21:49:14.297Z,3.37
2022-10-19T21:51:49.301Z,4.00
2022-10-19T21:54:18.751Z,3.80
2022-10-19T21:56:46.060Z,3.67
2022-10-19T21:59:13.312Z,3.77
2022-10-19T22:01:41.471Z,3.40
2022-10-19T22:04:12.513Z,3.83
2022-10-19T22:06:39.625Z,4.00
2022-10-19T22:09:08.094Z,3.93
2022-10-19T22:11:35.378Z,4.13
2022-10-19T22:14:03.633Z,3.63
2022-10-19T22:16:31.854Z,3.87
2022-10-19T22:18:58.951Z,3.40
2022-10-19T22:21:28.608Z,3.77
2022-10-19T22:24:03.528Z,4.50
2022-10-19T22:26:36.167Z,4.20
2022-10-19T22:29:03.657Z,4.30
2022-10-19T22:31:31.985Z,4.00
2022-10-19T22:34:02.296Z,4.30
2022-10-19T22:36:29.670Z,4.60
2022-10-19T22:38:56.735Z,4.73
2022-10-19T22:42:19.977Z,5.33
2022-10-19T22:45:06.205Z,5.93
2022-10-19T22:47:33.296Z,5.80
2022-10-19T22:50:00.242Z,5.50
2022-10-19T22:52:27.336Z,4.97
2022-10-19T22:54:54.428Z,5.50
2022-10-19T22:57:21.508Z,4.70
2022-10-19T22:59:49.270Z,4.97
2022-10-19T23:02:16.543Z,4.73
2022-10-19T23:04:43.422Z,4.70
2022-10-19T23:09:39.100Z,5.00
2022-10-19T23:12:06.399Z,5.37
2022-10-19T23:14:33.286Z,5.00
2022-10-19T23:17:00.458Z,4.97
2022-10-19T23:19:27.374Z,4.80
2022-10-19T23:21:54.481Z,4.77
2022-10-19T23:24:21.470Z,4.47
2022-10-19T23:26:48.679Z,4.40
2022-10-19T23:29:15.538Z,4.70
2022-10-19T23:31:43.388Z,4.63
2022-10-19T23:34:10.277Z,4.30
2022-10-19T23:36:37.416Z,4.50
2022-10-19T23:39:04.375Z,4.57
2022-10-19T23:41:31.484Z,4.63
2022-10-19T23:43:58.319Z,4.50
2022-10-19T23:46:25.424Z,4.80
2022-10-19T23:48:52.283Z,4.67
2022-10-19T23:51:20.906Z,4.27
2022-10-19T23:53:49.436Z,4.30
2022-10-19T23:56:27.616Z,4.17
2022-10-19T23:58:55.425Z,4.53
